sensor_id;sensor_type;location;lat;lon;timestamp;temperature;humidity
6174;DHT22;3120;48.796;9.796;2023-04-06T00:01:10;1.00;1.00
6174;DHT22;3120;48.796;9.796;2023-04-06T00:06:58;-0.10;1.00
6174;DHT22;3120;48.796;9.796;2023-04-06T00:09:23;-0.10;1.00
6174;DHT22;3120;48.796;9.796;2023-04-06T00:11:49;-0.10;2.20
6174;DHT22;3120;48.796;9.796;2023-04-06T00:14:15;-0.20;5.00
6174;DHT22;3120;48.796;9.796;2023-04-06T00:16:42;0.80;1.00
6174;DHT22;3120;48.796;9.796;2023-04-06T00:19:08;-0.20;1.00
6174;DHT22;3120;48.796;9.796;2023-04-06T00:21:34;1.50;1.00
6174;DHT22;3120;48.796;9.796;2023-04-06T00:24:14;-0.30;21.20
6174;DHT22;3120;48.796;9.796;2023-04-06T00:26:40;1.60;25.50
6174;DHT22;3120;48.796;9.796;2023-04-06T00:29:09;1.20;43.50
6174;DHT22;3120;48.796;9.796;2023-04-06T00:31:34;1.70;20.20
6174;DHT22;3120;48.796;9.796;2023-04-06T00:34:00;0.80;1.50
6174;DHT22;3120;48.796;9.796;2023-04-06T00:36:29;-0.40;3.30
6174;DHT22;3120;48.796;9.796;2023-04-06T00:38:55;-0.50;22.20
6174;DHT22;3120;48.796;9.796;2023-04-06T00:41:21;-0.40;18.10
6174;DHT22;3120;48.796;9.796;2023-04-06T00:43:47;-0.40;17.50
6174;DHT22;3120;48.796;9.796;2023-04-06T00:46:18;0.70;28.60
6174;DHT22;3120;48.796;9.796;2023-04-06T00:48:44;-0.40;68.50
6174;DHT22;3120;48.796;9.796;2023-04-06T00:51:10;-0.50;39.10
6174;DHT22;3120;48.796;9.796;2023-04-06T00:53:36;-0.50;66.90
6174;DHT22;3120;48.796;9.796;2023-04-06T00:56:01;-0.40;86.80
6174;DHT22;3120;48.796;9.796;2023-04-06T00:58:27;-0.50;87.50
6174;DHT22;3120;48.796;9.796;2023-04-06T01:00:54;0.50;63.40
6174;DHT22;3120;48.796;9.796;2023-04-06T01:03:20;-0.50;66.30
6174;DHT22;3120;48.796;9.796;2023-04-06T01:06:09;0.30;25.90
6174;DHT22;3120;48.796;9.796;2023-04-06T01:08:36;-0.60;18.00
6174;DHT22;3120;48.796;9.796;2023-04-06T01:11:02;-0.60;7.70
6174;DHT22;3120;48.796;9.796;2023-04-06T01:13:27;-0.70;23.90
6174;DHT22;3120;48.796;9.796;2023-04-06T01:15:53;-0.70;16.30
6174;DHT22;3120;48.796;9.796;2023-04-06T01:18:19;-0.70;37.00
6174;DHT22;3120;48.796;9.796;2023-04-06T01:20:50;-0.70;29.60
6174;DHT22;3120;48.796;9.796;2023-04-06T01:23:16;0.90;5.50
6174;DHT22;3120;48.796;9.796;2023-04-06T01:25:42;-0.70;1.00
6174;DHT22;3120;48.796;9.796;2023-04-06T01:28:07;-0.70;11.60
6174;DHT22;3120;48.796;9.796;2023-04-06T01:30:33;-0.60;27.50
6174;DHT22;3120;48.796;9.796;2023-04-06T01:32:59;-0.60;1.00
6174;DHT22;3120;48.796;9.796;2023-04-06T01:35:26;0.80;1.00
6174;DHT22;3120;48.796;9.796;2023-04-06T01:37:52;-0.60;1.00
6174;DHT22;3120;48.796;9.796;2023-04-06T01:40:18;-0.60;1.00
6174;DHT22;3120;48.796;9.796;2023-04-06T01:42:44;-0.70;1.00
6174;DHT22;3120;48.796;9.796;2023-04-06T01:45:10;0.70;1.00
6174;DHT22;3120;48.796;9.796;2023-04-06T01:47:53;-0.80;7.90
6174;DHT22;3120;48.796;9.796;2023-04-06T01:50:19;-0.80;27.00
6174;DHT22;3120;48.796;9.796;2023-04-06T01:52:49;-0.80;50.40
6174;DHT22;3120;48.796;9.796;2023-04-06T01:55:15;-0.80;44.50
6174;DHT22;3120;48.796;9.796;2023-04-06T01:57:41;-0.80;55.90
6174;DHT22;3120;48.796;9.796;2023-04-06T02:00:07;-0.70;35.90
6174;DHT22;3120;48.796;9.796;2023-04-06T02:02:32;-0.80;16.00
6174;DHT22;3120;48.796;9.796;2023-04-06T02:04:58;-0.80;39.20
6174;DHT22;3120;48.796;9.796;2023-04-06T02:07:24;-0.80;40.30
6174;DHT22;3120;48.796;9.796;2023-04-06T02:09:53;-0.90;70.90
6174;DHT22;3120;48.796;9.796;2023-04-06T02:12:19;-0.80;76.60
6174;DHT22;3120;48.796;9.796;2023-04-06T02:14:44;-0.90;99.50
6174;DHT22;3120;48.796;9.796;2023-04-06T02:17:47;-0.90;95.50
6174;DHT22;3120;48.796;9.796;2023-04-06T02:20:13;-0.90;87.00
6174;DHT22;3120;48.796;9.796;2023-04-06T02:22:58;-0.90;94.00
6174;DHT22;3120;48.796;9.796;2023-04-06T02:25:24;-0.90;99.90
6174;DHT22;3120;48.796;9.796;2023-04-06T02:27:50;-0.90;94.10
6174;DHT22;3120;48.796;9.796;2023-04-06T02:30:16;-0.80;77.10
6174;DHT22;3120;48.796;9.796;2023-04-06T02:32:41;-0.50;54.80
6174;DHT22;3120;48.796;9.796;2023-04-06T02:35:07;-1.10;61.80
6174;DHT22;3120;48.796;9.796;2023-04-06T02:37:33;-1.10;99.90
6174;DHT22;3120;48.796;9.796;2023-04-06T02:39:58;0.00;99.90
6174;DHT22;3120;48.796;9.796;2023-04-06T02:42:24;-1.00;99.90
6174;DHT22;3120;48.796;9.796;2023-04-06T02:44:50;-1.10;94.30
6174;DHT22;3120;48.796;9.796;2023-04-06T02:47:15;-1.10;99.90
6174;DHT22;3120;48.796;9.796;2023-04-06T02:49:41;-1.20;99.90
6174;DHT22;3120;48.796;9.796;2023-04-06T02:52:07;-1.20;99.90
6174;DHT22;3120;48.796;9.796;2023-04-06T02:54:32;-1.20;99.90
6174;DHT22;3120;48.796;9.796;2023-04-06T02:56:58;-1.10;99.90
6174;DHT22;3120;48.796;9.796;2023-04-06T02:59:23;-1.10;99.90
6174;DHT22;3120;48.796;9.796;2023-04-06T03:01:49;-1.10;99.90
6174;DHT22;3120;48.796;9.796;2023-04-06T03:04:15;-1.10;99.90
6174;DHT22;3120;48.796;9.796;2023-04-06T03:06:41;-0.50;99.90
6174;DHT22;3120;48.796;9.796;2023-04-06T03:09:06;-1.10;99.90
6174;DHT22;3120;48.796;9.796;2023-04-06T03:11:32;-1.20;99.90
6174;DHT22;3120;48.796;9.796;2023-04-06T03:13:58;-1.10;99.90
6174;DHT22;3120;48.796;9.796;2023-04-06T03:16:24;0.00;99.90
6174;DHT22;3120;48.796;9.796;2023-04-06T03:18:50;-0.50;99.90
6174;DHT22;3120;48.796;9.796;2023-04-06T03:21:15;-1.20;99.90
6174;DHT22;3120;48.796;9.796;2023-04-06T03:23:42;-1.30;99.90
6174;DHT22;3120;48.796;9.796;2023-04-06T03:26:07;-0.70;99.90
6174;DHT22;3120;48.796;9.796;2023-04-06T03:28:33;-1.30;99.90
6174;DHT22;3120;48.796;9.796;2023-04-06T03:30:59;-1.30;99.90
6174;DHT22;3120;48.796;9.796;2023-04-06T03:33:25;-1.20;99.90
6174;DHT22;3120;48.796;9.796;2023-04-06T03:35:54;-1.30;99.90
6174;DHT22;3120;48.796;9.796;2023-04-06T03:38:20;-1.30;99.90
6174;DHT22;3120;48.796;9.796;2023-04-06T03:40:45;-1.40;99.90
6174;DHT22;3120;48.796;9.796;2023-04-06T03:43:11;-1.30;99.90
6174;DHT22;3120;48.796;9.796;2023-04-06T03:45:37;-1.40;99.90
6174;DHT22;3120;48.796;9.796;2023-04-06T03:48:03;-1.40;99.90
6174;DHT22;3120;48.796;9.796;2023-04-06T03:50:28;-1.20;99.90
6174;DHT22;3120;48.796;9.796;2023-04-06T03:52:54;-1.40;99.90
6174;DHT22;3120;48.796;9.796;2023-04-06T03:55:20;-1.40;99.90
6174;DHT22;3120;48.796;9.796;2023-04-06T03:57:46;-1.40;99.90
6174;DHT22;3120;48.796;9.796;2023-04-06T04:00:12;-1.40;99.90
6174;DHT22;3120;48.796;9.796;2023-04-06T04:02:38;-1.50;99.90
6174;DHT22;3120;48.796;9.796;2023-04-06T04:05:04;-1.50;99.90
6174;DHT22;3120;48.796;9.796;2023-04-06T04:07:44;-1.50;99.90
6174;DHT22;3120;48.796;9.796;2023-04-06T04:10:10;-1.50;99.90
6174;DHT22;3120;48.796;9.796;2023-04-06T04:12:36;-1.50;99.90
6174;DHT22;3120;48.796;9.796;2023-04-06T04:15:02;-1.50;99.90
6174;DHT22;3120;48.796;9.796;2023-04-06T04:17:28;-1.60;99.90
6174;DHT22;3120;48.796;9.796;2023-04-06T04:19:54;-1.20;99.90
6174;DHT22;3120;48.796;9.796;2023-04-06T04:22:19;-1.60;99.90
6174;DHT22;3120;48.796;9.796;2023-04-06T04:24:45;-1.60;99.90
6174;DHT22;3120;48.796;9.796;2023-04-06T04:27:10;-1.60;99.90
6174;DHT22;3120;48.796;9.796;2023-04-06T04:29:37;-1.60;99.90
6174;DHT22;3120;48.796;9.796;2023-04-06T04:32:03;-0.10;99.90
6174;DHT22;3120;48.796;9.796;2023-04-06T04:34:29;-1.60;99.90
6174;DHT22;3120;48.796;9.796;2023-04-06T04:36:54;-0.80;99.90
6174;DHT22;3120;48.796;9.796;2023-04-06T04:39:20;-1.70;99.90
6174;DHT22;3120;48.796;9.796;2023-04-06T04:41:45;-1.70;99.90
6174;DHT22;3120;48.796;9.796;2023-04-06T04:44:11;-1.60;99.90
6174;DHT22;3120;48.796;9.796;2023-04-06T04:46:37;-1.60;99.90
6174;DHT22;3120;48.796;9.796;2023-04-06T04:49:17;-1.70;99.90
6174;DHT22;3120;48.796;9.796;2023-04-06T04:51:42;-1.60;99.90
6174;DHT22;3120;48.796;9.796;2023-04-06T04:54:08;-1.70;99.90
6174;DHT22;3120;48.796;9.796;2023-04-06T04:56:33;-1.70;99.90
6174;DHT22;3120;48.796;9.796;2023-04-06T04:58:59;-1.60;99.90
6174;DHT22;3120;48.796;9.796;2023-04-06T05:01:25;-1.70;99.90
6174;DHT22;3120;48.796;9.796;2023-04-06T05:03:50;-0.90;99.90
6174;DHT22;3120;48.796;9.796;2023-04-06T05:06:16;-1.60;99.90
6174;DHT22;3120;48.796;9.796;2023-04-06T05:08:42;-0.30;99.90
6174;DHT22;3120;48.796;9.796;2023-04-06T05:11:08;0.00;99.90
6174;DHT22;3120;48.796;9.796;2023-04-06T05:13:36;-1.50;99.90
6174;DHT22;3120;48.796;9.796;2023-04-06T05:16:02;-1.60;99.90
6174;DHT22;3120;48.796;9.796;2023-04-06T05:18:28;-1.50;99.90
6174;DHT22;3120;48.796;9.796;2023-04-06T05:20:53;-1.50;99.90
6174;DHT22;3120;48.796;9.796;2023-04-06T05:23:19;-1.40;99.90
6174;DHT22;3120;48.796;9.796;2023-04-06T05:25:45;-1.40;99.90
6174;DHT22;3120;48.796;9.796;2023-04-06T05:28:11;-0.50;99.90
6174;DHT22;3120;48.796;9.796;2023-04-06T05:30:59;-0.90;90.00
6174;DHT22;3120;48.796;9.796;2023-04-06T05:33:26;-0.50;23.10
6174;DHT22;3120;48.796;9.796;2023-04-06T05:35:55;0.00;1.00
6174;DHT22;3120;48.796;9.796;2023-04-06T05:38:21;0.80;1.00
6174;DHT22;3120;48.796;9.796;2023-04-06T05:40:47;0.90;99.90
6174;DHT22;3120;48.796;9.796;2023-04-06T05:43:12;0.60;99.90
6174;DHT22;3120;48.796;9.796;2023-04-06T05:45:38;0.70;1.00
6174;DHT22;3120;48.796;9.796;2023-04-06T05:48:04;0.70;99.90
6174;DHT22;3120;48.796;9.796;2023-04-06T05:50:29;0.70;1.00
6174;DHT22;3120;48.796;9.796;2023-04-06T05:52:55;2.20;1.00
6174;DHT22;3120;48.796;9.796;2023-04-06T05:58:43;1.30;99.90
6174;DHT22;3120;48.796;9.796;2023-04-06T06:01:09;1.70;99.90
6174;DHT22;3120;48.796;9.796;2023-04-06T06:03:35;2.90;99.90
6174;DHT22;3120;48.796;9.796;2023-04-06T06:06:02;2.90;1.00
6174;DHT22;3120;48.796;9.796;2023-04-06T06:08:28;2.50;99.90
6174;DHT22;3120;48.796;9.796;2023-04-06T06:10:54;2.20;1.00
6174;DHT22;3120;48.796;9.796;2023-04-06T06:13:19;2.50;1.00
6174;DHT22;3120;48.796;9.796;2023-04-06T06:15:46;2.50;99.90
6174;DHT22;3120;48.796;9.796;2023-04-06T06:18:13;2.90;94.60
6174;DHT22;3120;48.796;9.796;2023-04-06T06:20:38;3.10;99.90
6174;DHT22;3120;48.796;9.796;2023-04-06T06:23:04;3.70;98.70
6174;DHT22;3120;48.796;9.796;2023-04-06T06:25:29;4.00;1.00
6174;DHT22;3120;48.796;9.796;2023-04-06T06:27:58;5.10;1.00
6174;DHT22;3120;48.796;9.796;2023-04-06T06:30:24;5.50;99.90
6174;DHT22;3120;48.796;9.796;2023-04-06T06:32:50;4.80;99.90
6174;DHT22;3120;48.796;9.796;2023-04-06T06:35:16;4.50;1.00
6174;DHT22;3120;48.796;9.796;2023-04-06T06:37:42;4.90;1.00
6174;DHT22;3120;48.796;9.796;2023-04-06T06:42:43;5.70;99.90
6174;DHT22;3120;48.796;9.796;2023-04-06T06:45:09;6.70;99.90
6174;DHT22;3120;48.796;9.796;2023-04-06T06:47:35;5.40;99.90
6174;DHT22;3120;48.796;9.796;2023-04-06T06:50:01;6.00;99.90
6174;DHT22;3120;48.796;9.796;2023-04-06T06:52:28;5.40;99.90
6174;DHT22;3120;48.796;9.796;2023-04-06T06:54:54;5.90;99.90
6174;DHT22;3120;48.796;9.796;2023-04-06T06:57:19;7.50;99.90
6174;DHT22;3120;48.796;9.796;2023-04-06T06:59:45;7.00;99.90
6174;DHT22;3120;48.796;9.796;2023-04-06T07:02:11;6.30;99.90
6174;DHT22;3120;48.796;9.796;2023-04-06T07:04:36;6.50;99.90
6174;DHT22;3120;48.796;9.796;2023-04-06T07:07:02;6.30;99.90
6174;DHT22;3120;48.796;9.796;2023-04-06T07:09:28;6.10;99.90
6174;DHT22;3120;48.796;9.796;2023-04-06T07:11:54;6.40;99.90
6174;DHT22;3120;48.796;9.796;2023-04-06T07:14:21;7.30;99.90
6174;DHT22;3120;48.796;9.796;2023-04-06T07:16:47;6.50;99.90
6174;DHT22;3120;48.796;9.796;2023-04-06T07:19:14;7.10;99.90
6174;DHT22;3120;48.796;9.796;2023-04-06T07:21:39;7.00;99.90
6174;DHT22;3120;48.796;9.796;2023-04-06T07:24:05;7.00;99.90
6174;DHT22;3120;48.796;9.796;2023-04-06T07:26:31;7.90;99.90
6174;DHT22;3120;48.796;9.796;2023-04-06T07:28:57;8.90;99.90
6174;DHT22;3120;48.796;9.796;2023-04-06T07:31:22;9.50;73.40
6174;DHT22;3120;48.796;9.796;2023-04-06T07:33:48;10.00;42.60
6174;DHT22;3120;48.796;9.796;2023-04-06T07:36:13;10.10;26.30
6174;DHT22;3120;48.796;9.796;2023-04-06T07:38:39;11.50;12.90
6174;DHT22;3120;48.796;9.796;2023-04-06T07:41:05;10.60;12.80
6174;DHT22;3120;48.796;9.796;2023-04-06T07:43:31;10.70;1.00
6174;DHT22;3120;48.796;9.796;2023-04-06T07:45:56;11.00;1.00
6174;DHT22;3120;48.796;9.796;2023-04-06T07:48:23;10.60;1.00
6174;DHT22;3120;48.796;9.796;2023-04-06T07:50:49;11.10;1.00
6174;DHT22;3120;48.796;9.796;2023-04-06T07:53:15;10.30;1.00
6174;DHT22;3120;48.796;9.796;2023-04-06T07:55:40;10.70;1.00
6174;DHT22;3120;48.796;9.796;2023-04-06T07:58:06;11.40;1.00
6174;DHT22;3120;48.796;9.796;2023-04-06T08:00:32;11.40;1.00
6174;DHT22;3120;48.796;9.796;2023-04-06T08:02:58;11.50;1.00
6174;DHT22;3120;48.796;9.796;2023-04-06T08:05:23;12.40;1.00
6174;DHT22;3120;48.796;9.796;2023-04-06T08:07:49;12.80;1.00
6174;DHT22;3120;48.796;9.796;2023-04-06T08:10:15;12.70;1.00
6174;DHT22;3120;48.796;9.796;2023-04-06T08:12:40;12.70;1.00
6174;DHT22;3120;48.796;9.796;2023-04-06T08:15:06;12.50;1.00
6174;DHT22;3120;48.796;9.796;2023-04-06T08:17:32;11.80;1.00
6174;DHT22;3120;48.796;9.796;2023-04-06T08:19:59;12.60;1.00
6174;DHT22;3120;48.796;9.796;2023-04-06T08:22:25;13.10;1.00
6174;DHT22;3120;48.796;9.796;2023-04-06T08:24:51;13.00;1.00
6174;DHT22;3120;48.796;9.796;2023-04-06T08:27:16;13.10;1.00
6174;DHT22;3120;48.796;9.796;2023-04-06T08:29:42;13.60;1.00
6174;DHT22;3120;48.796;9.796;2023-04-06T08:32:08;13.00;1.00
6174;DHT22;3120;48.796;9.796;2023-04-06T08:34:33;13.80;1.00
6174;DHT22;3120;48.796;9.796;2023-04-06T08:36:59;13.60;1.00
6174;DHT22;3120;48.796;9.796;2023-04-06T08:39:25;13.60;1.00
6174;DHT22;3120;48.796;9.796;2023-04-06T08:41:53;13.70;1.00
6174;DHT22;3120;48.796;9.796;2023-04-06T08:44:22;13.70;1.00
6174;DHT22;3120;48.796;9.796;2023-04-06T08:46:48;13.80;1.00
6174;DHT22;3120;48.796;9.796;2023-04-06T08:49:14;13.90;1.00
6174;DHT22;3120;48.796;9.796;2023-04-06T08:51:42;13.80;1.00
6174;DHT22;3120;48.796;9.796;2023-04-06T08:54:08;13.80;1.00
6174;DHT22;3120;48.796;9.796;2023-04-06T08:56:37;13.80;1.00
6174;DHT22;3120;48.796;9.796;2023-04-06T08:59:03;13.50;1.00
6174;DHT22;3120;48.796;9.796;2023-04-06T09:01:31;13.60;1.00
6174;DHT22;3120;48.796;9.796;2023-04-06T09:03:59;14.10;1.00
6174;DHT22;3120;48.796;9.796;2023-04-06T09:06:27;14.50;1.00
6174;DHT22;3120;48.796;9.796;2023-04-06T09:08:52;14.00;1.00
6174;DHT22;3120;48.796;9.796;2023-04-06T09:11:18;14.20;1.00
6174;DHT22;3120;48.796;9.796;2023-04-06T09:13:54;13.70;1.00
6174;DHT22;3120;48.796;9.796;2023-04-06T09:16:21;14.00;1.00
6174;DHT22;3120;48.796;9.796;2023-04-06T09:18:47;13.70;1.00
6174;DHT22;3120;48.796;9.796;2023-04-06T09:21:17;13.90;1.00
6174;DHT22;3120;48.796;9.796;2023-04-06T09:23:42;14.10;1.00
6174;DHT22;3120;48.796;9.796;2023-04-06T09:26:16;14.10;1.00
6174;DHT22;3120;48.796;9.796;2023-04-06T09:28:44;13.30;1.00
6174;DHT22;3120;48.796;9.796;2023-04-06T09:31:11;13.30;1.00
6174;DHT22;3120;48.796;9.796;2023-04-06T09:33:39;13.40;1.00
6174;DHT22;3120;48.796;9.796;2023-04-06T09:36:06;13.90;1.00
6174;DHT22;3120;48.796;9.796;2023-04-06T09:38:32;13.70;1.00
6174;DHT22;3120;48.796;9.796;2023-04-06T09:40:58;14.10;1.00
6174;DHT22;3120;48.796;9.796;2023-04-06T09:43:27;13.40;1.00
6174;DHT22;3120;48.796;9.796;2023-04-06T09:45:53;13.30;1.00
6174;DHT22;3120;48.796;9.796;2023-04-06T09:48:21;13.30;1.00
6174;DHT22;3120;48.796;9.796;2023-04-06T09:50:50;12.00;1.00
6174;DHT22;3120;48.796;9.796;2023-04-06T09:53:20;11.90;1.00
6174;DHT22;3120;48.796;9.796;2023-04-06T09:55:49;11.90;1.00
6174;DHT22;3120;48.796;9.796;2023-04-06T09:58:16;12.10;1.00
6174;DHT22;3120;48.796;9.796;2023-04-06T10:01:06;11.60;1.00
6174;DHT22;3120;48.796;9.796;2023-04-06T10:04:04;11.70;1.00
6174;DHT22;3120;48.796;9.796;2023-04-06T10:06:33;11.90;1.00
6174;DHT22;3120;48.796;9.796;2023-04-06T10:09:02;11.90;1.00
6174;DHT22;3120;48.796;9.796;2023-04-06T10:11:30;12.00;1.00
6174;DHT22;3120;48.796;9.796;2023-04-06T10:13:56;12.00;1.00
6174;DHT22;3120;48.796;9.796;2023-04-06T10:16:22;12.00;1.00
6174;DHT22;3120;48.796;9.796;2023-04-06T10:18:54;11.80;1.00
6174;DHT22;3120;48.796;9.796;2023-04-06T10:21:24;11.90;1.00
6174;DHT22;3120;48.796;9.796;2023-04-06T10:23:53;11.80;1.00
6174;DHT22;3120;48.796;9.796;2023-04-06T10:26:21;11.60;1.00
6174;DHT22;3120;48.796;9.796;2023-04-06T10:28:49;11.90;1.00
6174;DHT22;3120;48.796;9.796;2023-04-06T10:31:15;11.90;1.00
6174;DHT22;3120;48.796;9.796;2023-04-06T10:33:41;11.80;1.00
6174;DHT22;3120;48.796;9.796;2023-04-06T10:36:23;11.90;1.00
6174;DHT22;3120;48.796;9.796;2023-04-06T10:38:57;11.80;1.00
6174;DHT22;3120;48.796;9.796;2023-04-06T10:41:23;12.10;1.00
6174;DHT22;3120;48.796;9.796;2023-04-06T10:43:57;12.20;1.00
6174;DHT22;3120;48.796;9.796;2023-04-06T10:46:32;12.30;1.00
6174;DHT22;3120;48.796;9.796;2023-04-06T10:52:10;12.00;1.00
6174;DHT22;3120;48.796;9.796;2023-04-06T10:54:41;12.10;1.00
6174;DHT22;3120;48.796;9.796;2023-04-06T10:57:08;12.30;1.00
6174;DHT22;3120;48.796;9.796;2023-04-06T10:59:33;12.20;1.00
6174;DHT22;3120;48.796;9.796;2023-04-06T11:01:59;12.10;1.00
6174;DHT22;3120;48.796;9.796;2023-04-06T11:04:25;12.20;1.00
6174;DHT22;3120;48.796;9.796;2023-04-06T11:06:50;12.20;1.00
6174;DHT22;3120;48.796;9.796;2023-04-06T11:09:27;12.30;1.00
6174;DHT22;3120;48.796;9.796;2023-04-06T11:11:53;12.50;1.00
6174;DHT22;3120;48.796;9.796;2023-04-06T11:14:19;12.60;1.00
6174;DHT22;3120;48.796;9.796;2023-04-06T11:16:47;12.70;1.00
6174;DHT22;3120;48.796;9.796;2023-04-06T11:19:15;12.70;1.00
6174;DHT22;3120;48.796;9.796;2023-04-06T11:21:47;12.70;1.00
6174;DHT22;3120;48.796;9.796;2023-04-06T11:24:22;12.80;1.00
6174;DHT22;3120;48.796;9.796;2023-04-06T11:26:49;12.80;1.00
6174;DHT22;3120;48.796;9.796;2023-04-06T11:29:21;13.00;1.00
6174;DHT22;3120;48.796;9.796;2023-04-06T11:31:51;13.00;1.00
6174;DHT22;3120;48.796;9.796;2023-04-06T11:36:45;13.00;1.00
6174;DHT22;3120;48.796;9.796;2023-04-06T11:39:12;13.00;1.00
6174;DHT22;3120;48.796;9.796;2023-04-06T11:41:38;12.90;1.00
6174;DHT22;3120;48.796;9.796;2023-04-06T11:44:04;12.70;1.00
6174;DHT22;3120;48.796;9.796;2023-04-06T11:46:31;12.70;1.00
6174;DHT22;3120;48.796;9.796;2023-04-06T11:49:01;12.50;1.00
6174;DHT22;3120;48.796;9.796;2023-04-06T11:51:27;12.40;1.00
6174;DHT22;3120;48.796;9.796;2023-04-06T11:53:54;12.40;1.00
6174;DHT22;3120;48.796;9.796;2023-04-06T11:56:32;12.60;1.00
6174;DHT22;3120;48.796;9.796;2023-04-06T11:58:58;12.70;1.00
6174;DHT22;3120;48.796;9.796;2023-04-06T12:01:26;12.80;1.00
6174;DHT22;3120;48.796;9.796;2023-04-06T12:03:52;12.90;1.00
6174;DHT22;3120;48.796;9.796;2023-04-06T12:06:18;12.80;1.00
6174;DHT22;3120;48.796;9.796;2023-04-06T12:08:44;12.80;1.00
6174;DHT22;3120;48.796;9.796;2023-04-06T12:11:10;12.80;1.00
6174;DHT22;3120;48.796;9.796;2023-04-06T12:13:37;12.80;1.00
6174;DHT22;3120;48.796;9.796;2023-04-06T12:16:02;12.70;1.00
6174;DHT22;3120;48.796;9.796;2023-04-06T12:18:29;12.70;1.00
6174;DHT22;3120;48.796;9.796;2023-04-06T12:20:55;12.80;1.00
6174;DHT22;3120;48.796;9.796;2023-04-06T12:23:20;12.90;1.00
6174;DHT22;3120;48.796;9.796;2023-04-06T12:25:46;12.90;1.00
6174;DHT22;3120;48.796;9.796;2023-04-06T12:28:12;12.70;1.00
6174;DHT22;3120;48.796;9.796;2023-04-06T12:30:37;12.80;1.00
6174;DHT22;3120;48.796;9.796;2023-04-06T12:33:03;12.90;1.00
6174;DHT22;3120;48.796;9.796;2023-04-06T12:35:32;13.10;1.00
6174;DHT22;3120;48.796;9.796;2023-04-06T12:37:58;13.20;1.00
6174;DHT22;3120;48.796;9.796;2023-04-06T12:40:24;13.10;1.00
6174;DHT22;3120;48.796;9.796;2023-04-06T12:42:49;13.20;1.00
6174;DHT22;3120;48.796;9.796;2023-04-06T12:45:15;13.30;1.00
6174;DHT22;3120;48.796;9.796;2023-04-06T12:47:41;13.20;1.00
6174;DHT22;3120;48.796;9.796;2023-04-06T12:50:07;13.10;1.00
6174;DHT22;3120;48.796;9.796;2023-04-06T12:52:32;13.00;1.00
6174;DHT22;3120;48.796;9.796;2023-04-06T12:55:01;13.20;1.00
6174;DHT22;3120;48.796;9.796;2023-04-06T12:57:27;13.10;1.00
6174;DHT22;3120;48.796;9.796;2023-04-06T12:59:52;13.10;1.00
6174;DHT22;3120;48.796;9.796;2023-04-06T13:02:18;13.00;1.00
6174;DHT22;3120;48.796;9.796;2023-04-06T13:04:45;12.90;1.00
6174;DHT22;3120;48.796;9.796;2023-04-06T13:07:11;13.10;1.00
6174;DHT22;3120;48.796;9.796;2023-04-06T13:09:37;13.10;1.00
6174;DHT22;3120;48.796;9.796;2023-04-06T13:12:02;13.10;1.00
6174;DHT22;3120;48.796;9.796;2023-04-06T13:14:28;13.20;1.00
6174;DHT22;3120;48.796;9.796;2023-04-06T13:16:54;13.20;1.00
6174;DHT22;3120;48.796;9.796;2023-04-06T13:19:20;13.30;1.00
6174;DHT22;3120;48.796;9.796;2023-04-06T13:21:45;13.40;1.00
6174;DHT22;3120;48.796;9.796;2023-04-06T13:24:11;13.30;1.00
6174;DHT22;3120;48.796;9.796;2023-04-06T13:26:36;13.20;1.00
6174;DHT22;3120;48.796;9.796;2023-04-06T13:29:02;13.30;1.00
6174;DHT22;3120;48.796;9.796;2023-04-06T13:31:29;13.30;1.00
6174;DHT22;3120;48.796;9.796;2023-04-06T13:33:54;13.40;1.00
6174;DHT22;3120;48.796;9.796;2023-04-06T13:36:20;13.40;1.00
6174;DHT22;3120;48.796;9.796;2023-04-06T13:38:46;13.30;1.00
6174;DHT22;3120;48.796;9.796;2023-04-06T13:41:21;13.20;1.00
6174;DHT22;3120;48.796;9.796;2023-04-06T13:43:47;13.30;1.00
6174;DHT22;3120;48.796;9.796;2023-04-06T13:46:13;13.30;1.00
6174;DHT22;3120;48.796;9.796;2023-04-06T13:48:39;13.30;1.00
6174;DHT22;3120;48.796;9.796;2023-04-06T13:51:11;13.10;1.00
6174;DHT22;3120;48.796;9.796;2023-04-06T13:53:37;13.10;1.00
6174;DHT22;3120;48.796;9.796;2023-04-06T13:56:03;13.10;1.00
6174;DHT22;3120;48.796;9.796;2023-04-06T13:58:29;13.10;1.00
6174;DHT22;3120;48.796;9.796;2023-04-06T14:01:02;14.20;1.00
6174;DHT22;3120;48.796;9.796;2023-04-06T14:03:27;13.70;1.00
6174;DHT22;3120;48.796;9.796;2023-04-06T14:05:53;13.00;1.00
6174;DHT22;3120;48.796;9.796;2023-04-06T14:08:18;13.40;1.00
6174;DHT22;3120;48.796;9.796;2023-04-06T14:10:44;13.10;1.00
6174;DHT22;3120;48.796;9.796;2023-04-06T14:13:10;13.20;1.00
6174;DHT22;3120;48.796;9.796;2023-04-06T14:15:38;13.30;1.00
6174;DHT22;3120;48.796;9.796;2023-04-06T14:18:04;13.30;1.00
6174;DHT22;3120;48.796;9.796;2023-04-06T14:20:31;13.20;1.00
6174;DHT22;3120;48.796;9.796;2023-04-06T14:29:23;13.20;1.00
6174;DHT22;3120;48.796;9.796;2023-04-06T14:31:49;13.40;1.00
6174;DHT22;3120;48.796;9.796;2023-04-06T14:34:14;13.30;1.00
6174;DHT22;3120;48.796;9.796;2023-04-06T14:36:42;14.50;1.00
6174;DHT22;3120;48.796;9.796;2023-04-06T14:39:07;13.80;1.00
6174;DHT22;3120;48.796;9.796;2023-04-06T14:41:34;13.60;1.00
6174;DHT22;3120;48.796;9.796;2023-04-06T14:44:00;14.10;1.00
6174;DHT22;3120;48.796;9.796;2023-04-06T14:46:26;13.10;1.00
6174;DHT22;3120;48.796;9.796;2023-04-06T14:48:55;13.90;1.00
6174;DHT22;3120;48.796;9.796;2023-04-06T14:51:26;13.00;1.00
6174;DHT22;3120;48.796;9.796;2023-04-06T14:53:55;12.90;1.00
6174;DHT22;3120;48.796;9.796;2023-04-06T14:56:24;14.20;1.00
6174;DHT22;3120;48.796;9.796;2023-04-06T14:58:50;12.70;1.00
6174;DHT22;3120;48.796;9.796;2023-04-06T15:01:19;14.60;1.00
6174;DHT22;3120;48.796;9.796;2023-04-06T15:03:48;12.80;1.00
6174;DHT22;3120;48.796;9.796;2023-04-06T15:06:14;13.20;1.00
6174;DHT22;3120;48.796;9.796;2023-04-06T15:08:41;12.70;1.00
6174;DHT22;3120;48.796;9.796;2023-04-06T15:11:07;14.80;1.00
6174;DHT22;3120;48.796;9.796;2023-04-06T15:13:33;13.10;1.00
6174;DHT22;3120;48.796;9.796;2023-04-06T15:15:58;12.90;1.00
6174;DHT22;3120;48.796;9.796;2023-04-06T15:18:24;12.90;1.00
6174;DHT22;3120;48.796;9.796;2023-04-06T15:20:51;12.90;1.00
6174;DHT22;3120;48.796;9.796;2023-04-06T15:23:16;12.90;1.00
6174;DHT22;3120;48.796;9.796;2023-04-06T15:25:43;15.20;1.00
6174;DHT22;3120;48.796;9.796;2023-04-06T15:28:08;13.70;1.00
6174;DHT22;3120;48.796;9.796;2023-04-06T15:30:35;12.80;1.00
6174;DHT22;3120;48.796;9.796;2023-04-06T15:33:01;14.10;1.00
6174;DHT22;3120;48.796;9.796;2023-04-06T15:35:29;12.90;1.00
6174;DHT22;3120;48.796;9.796;2023-04-06T15:37:55;13.90;1.00
6174;DHT22;3120;48.796;9.796;2023-04-06T15:40:21;13.70;1.00
6174;DHT22;3120;48.796;9.796;2023-04-06T15:42:48;14.90;1.00
6174;DHT22;3120;48.796;9.796;2023-04-06T15:45:13;13.90;1.00
6174;DHT22;3120;48.796;9.796;2023-04-06T15:47:43;13.80;1.00
6174;DHT22;3120;48.796;9.796;2023-04-06T15:50:09;14.60;1.00
6174;DHT22;3120;48.796;9.796;2023-04-06T15:52:35;13.20;1.00
6174;DHT22;3120;48.796;9.796;2023-04-06T15:55:06;13.20;1.00
6174;DHT22;3120;48.796;9.796;2023-04-06T15:57:32;13.10;1.00
6174;DHT22;3120;48.796;9.796;2023-04-06T15:59:58;13.10;1.00
6174;DHT22;3120;48.796;9.796;2023-04-06T16:02:24;14.00;1.00
6174;DHT22;3120;48.796;9.796;2023-04-06T16:04:54;14.20;1.00
6174;DHT22;3120;48.796;9.796;2023-04-06T16:07:21;14.10;1.00
6174;DHT22;3120;48.796;9.796;2023-04-06T16:09:46;13.00;1.00
6174;DHT22;3120;48.796;9.796;2023-04-06T16:12:13;13.00;1.00
6174;DHT22;3120;48.796;9.796;2023-04-06T16:14:38;14.90;1.00
6174;DHT22;3120;48.796;9.796;2023-04-06T16:17:04;13.00;1.00
6174;DHT22;3120;48.796;9.796;2023-04-06T16:19:30;13.00;1.00
6174;DHT22;3120;48.796;9.796;2023-04-06T16:21:55;15.20;1.00
6174;DHT22;3120;48.796;9.796;2023-04-06T16:24:22;12.90;1.00
6174;DHT22;3120;48.796;9.796;2023-04-06T16:26:47;14.90;1.00
6174;DHT22;3120;48.796;9.796;2023-04-06T16:29:15;13.00;1.00
6174;DHT22;3120;48.796;9.796;2023-04-06T16:31:41;13.70;1.00
6174;DHT22;3120;48.796;9.796;2023-04-06T16:34:11;12.90;1.00